map of YET home
YET - Airport
Location
City:  Edson, Alberta, Canada
Name:Edson Airport
ICAO:CYET
IATA:YET

Details
Type:Airport (Airfield)
Use:Public/Civil
Latitude:5334'44"N (53.578889)
Longitude:11627'54"W (-116.464999)
Elevation:3043 ft (928 m)
Variation:15.56E (WMM2015v2 magnetic declination)
-0.12 annual change
Runways:1
Longest:6000 ft (1829 m), paved

Time
Time Zone:UTC-7 (DST-6)
Local Time:

Weather
METAR:CYET 041418Z AUTO 00000KT 6SM -SN CLR M33/M36 A3007 RMK SLP304

Related Locations
Nearby:
Farthest:YWKS: 10609 mi / 17073 km
Wilkins Runway (Casey), Upper Peterson Glacier, AQ

Find:

   beyond  
but within

Other Information
Maps:
NOTAMs:
Links:
Sources:

  
  • flag of Canada
  • flag of Alberta
  

Airport Diagram

Airport diagram for YET

Airport diagram PDF

Sectional Chart

Flight Planning
at skyvector.com

Satellite Image

Google Maps Satellite view

 

Copyright © 2004-2019 Karl L. Swartz. All rights reserved.
The Great Circle Mapper name and logo are trademarks of the Great Circle Mapper.
All other trademarks mentioned herein belong to their respective owners.
Please see credits for attibutions and further copyright information.

  Follow gcmap on Facebook Follow gcmap on Twitter GCmap on LinkedIn

hCard Microformat

Geo Microformat